sensor_id;sensor_type;location;lat;lon;timestamp;P1;durP1;ratioP1;P2;durP2;ratioP2
46116;SDS011;32591;48.102;11.772;2023-09-08T00:00:26;8.75;;;5.05;;
46116;SDS011;32591;48.102;11.772;2023-09-08T00:02:54;7.57;;;4.60;;
46116;SDS011;32591;48.102;11.772;2023-09-08T00:05:20;6.30;;;4.40;;
46116;SDS011;32591;48.102;11.772;2023-09-08T00:07:47;7.22;;;5.10;;
46116;SDS011;32591;48.102;11.772;2023-09-08T00:10:16;6.38;;;4.68;;
46116;SDS011;32591;48.102;11.772;2023-09-08T00:12:43;7.03;;;4.32;;
46116;SDS011;32591;48.102;11.772;2023-09-08T00:15:10;6.93;;;4.63;;
46116;SDS011;32591;48.102;11.772;2023-09-08T00:17:37;8.10;;;5.43;;
46116;SDS011;32591;48.102;11.772;2023-09-08T00:20:05;6.47;;;4.80;;
46116;SDS011;32591;48.102;11.772;2023-09-08T00:22:34;7.32;;;5.18;;
46116;SDS011;32591;48.102;11.772;2023-09-08T00:25:01;8.02;;;5.43;;
46116;SDS011;32591;48.102;11.772;2023-09-08T00:27:30;6.47;;;4.35;;
46116;SDS011;32591;48.102;11.772;2023-09-08T00:29:57;8.35;;;5.22;;
46116;SDS011;32591;48.102;11.772;2023-09-08T00:32:27;8.68;;;4.95;;
46116;SDS011;32591;48.102;11.772;2023-09-08T00:34:54;5.85;;;4.55;;
46116;SDS011;32591;48.102;11.772;2023-09-08T00:37:20;7.80;;;4.70;;
46116;SDS011;32591;48.102;11.772;2023-09-08T00:39:47;6.70;;;4.75;;
46116;SDS011;32591;48.102;11.772;2023-09-08T00:42:14;7.55;;;4.82;;
46116;SDS011;32591;48.102;11.772;2023-09-08T00:44:43;8.77;;;5.10;;
46116;SDS011;32591;48.102;11.772;2023-09-08T00:47:09;10.38;;;6.55;;
46116;SDS011;32591;48.102;11.772;2023-09-08T00:49:37;6.78;;;4.97;;
46116;SDS011;32591;48.102;11.772;2023-09-08T00:52:04;7.10;;;4.72;;
46116;SDS011;32591;48.102;11.772;2023-09-08T00:54:32;6.60;;;4.85;;
46116;SDS011;32591;48.102;11.772;2023-09-08T00:56:59;6.43;;;5.30;;
46116;SDS011;32591;48.102;11.772;2023-09-08T00:59:29;6.25;;;4.95;;
46116;SDS011;32591;48.102;11.772;2023-09-08T01:01:59;7.88;;;4.80;;
46116;SDS011;32591;48.102;11.772;2023-09-08T01:04:27;6.88;;;5.40;;
46116;SDS011;32591;48.102;11.772;2023-09-08T01:06:55;6.45;;;4.82;;
46116;SDS011;32591;48.102;11.772;2023-09-08T01:09:22;7.15;;;4.93;;
46116;SDS011;32591;48.102;11.772;2023-09-08T01:11:50;6.65;;;4.80;;
46116;SDS011;32591;48.102;11.772;2023-09-08T01:14:17;7.15;;;4.70;;
46116;SDS011;32591;48.102;11.772;2023-09-08T01:16:45;6.22;;;4.68;;
46116;SDS011;32591;48.102;11.772;2023-09-08T01:19:15;6.93;;;4.88;;
46116;SDS011;32591;48.102;11.772;2023-09-08T01:21:58;7.05;;;4.68;;
46116;SDS011;32591;48.102;11.772;2023-09-08T01:27:41;6.07;;;4.47;;
46116;SDS011;32591;48.102;11.772;2023-09-08T01:30:12;6.07;;;4.70;;
46116;SDS011;32591;48.102;11.772;2023-09-08T01:32:40;7.45;;;4.68;;
46116;SDS011;32591;48.102;11.772;2023-09-08T01:35:08;6.85;;;4.72;;
46116;SDS011;32591;48.102;11.772;2023-09-08T01:37:35;7.85;;;5.45;;
46116;SDS011;32591;48.102;11.772;2023-09-08T01:40:06;8.50;;;4.53;;
46116;SDS011;32591;48.102;11.772;2023-09-08T01:42:35;6.15;;;4.57;;
46116;SDS011;32591;48.102;11.772;2023-09-08T01:45:03;7.20;;;4.82;;
46116;SDS011;32591;48.102;11.772;2023-09-08T01:47:31;8.23;;;5.05;;
46116;SDS011;32591;48.102;11.772;2023-09-08T01:49:58;6.82;;;4.28;;
46116;SDS011;32591;48.102;11.772;2023-09-08T01:52:25;6.65;;;4.40;;
46116;SDS011;32591;48.102;11.772;2023-09-08T01:54:53;5.70;;;4.32;;
46116;SDS011;32591;48.102;11.772;2023-09-08T01:57:20;7.10;;;4.50;;
46116;SDS011;32591;48.102;11.772;2023-09-08T01:59:48;7.97;;;5.32;;
46116;SDS011;32591;48.102;11.772;2023-09-08T02:02:15;7.03;;;4.75;;
46116;SDS011;32591;48.102;11.772;2023-09-08T02:04:42;8.23;;;5.38;;
46116;SDS011;32591;48.102;11.772;2023-09-08T02:07:09;5.72;;;4.20;;
46116;SDS011;32591;48.102;11.772;2023-09-08T02:09:36;6.43;;;4.97;;
46116;SDS011;32591;48.102;11.772;2023-09-08T02:12:05;7.28;;;4.70;;
46116;SDS011;32591;48.102;11.772;2023-09-08T02:14:33;6.93;;;4.57;;
46116;SDS011;32591;48.102;11.772;2023-09-08T02:17:01;7.93;;;4.43;;
46116;SDS011;32591;48.102;11.772;2023-09-08T02:19:28;8.02;;;4.97;;
46116;SDS011;32591;48.102;11.772;2023-09-08T02:21:55;8.20;;;5.35;;
46116;SDS011;32591;48.102;11.772;2023-09-08T02:24:22;6.32;;;5.38;;
46116;SDS011;32591;48.102;11.772;2023-09-08T02:26:49;8.00;;;4.93;;
46116;SDS011;32591;48.102;11.772;2023-09-08T02:29:16;7.10;;;4.75;;
46116;SDS011;32591;48.102;11.772;2023-09-08T02:31:43;7.50;;;4.75;;
46116;SDS011;32591;48.102;11.772;2023-09-08T02:34:12;8.10;;;4.47;;
46116;SDS011;32591;48.102;11.772;2023-09-08T02:36:39;6.07;;;4.40;;
46116;SDS011;32591;48.102;11.772;2023-09-08T02:39:06;8.90;;;5.18;;
46116;SDS011;32591;48.102;11.772;2023-09-08T02:41:32;6.63;;;4.53;;
46116;SDS011;32591;48.102;11.772;2023-09-08T02:43:59;10.25;;;4.88;;
46116;SDS011;32591;48.102;11.772;2023-09-08T02:46:26;7.93;;;4.70;;
46116;SDS011;32591;48.102;11.772;2023-09-08T02:48:53;9.85;;;5.15;;
46116;SDS011;32591;48.102;11.772;2023-09-08T02:51:21;8.52;;;4.68;;
46116;SDS011;32591;48.102;11.772;2023-09-08T02:53:48;7.25;;;4.93;;
46116;SDS011;32591;48.102;11.772;2023-09-08T02:56:15;6.93;;;4.60;;
46116;SDS011;32591;48.102;11.772;2023-09-08T02:58:42;8.25;;;4.65;;
46116;SDS011;32591;48.102;11.772;2023-09-08T03:01:09;7.53;;;5.05;;
46116;SDS011;32591;48.102;11.772;2023-09-08T03:03:38;8.40;;;4.45;;
46116;SDS011;32591;48.102;11.772;2023-09-08T03:06:06;7.30;;;4.35;;
46116;SDS011;32591;48.102;11.772;2023-09-08T03:08:34;8.13;;;4.93;;
46116;SDS011;32591;48.102;11.772;2023-09-08T03:11:02;6.40;;;4.50;;
46116;SDS011;32591;48.102;11.772;2023-09-08T03:13:31;8.00;;;4.65;;
46116;SDS011;32591;48.102;11.772;2023-09-08T03:16:01;5.90;;;4.38;;
46116;SDS011;32591;48.102;11.772;2023-09-08T03:18:30;6.38;;;4.45;;
46116;SDS011;32591;48.102;11.772;2023-09-08T03:20:58;7.05;;;4.82;;
46116;SDS011;32591;48.102;11.772;2023-09-08T03:23:27;7.15;;;5.03;;
46116;SDS011;32591;48.102;11.772;2023-09-08T03:25:55;6.68;;;4.70;;
46116;SDS011;32591;48.102;11.772;2023-09-08T03:28:22;6.13;;;4.18;;
46116;SDS011;32591;48.102;11.772;2023-09-08T03:30:49;8.27;;;4.75;;
46116;SDS011;32591;48.102;11.772;2023-09-08T03:33:16;7.75;;;4.68;;
46116;SDS011;32591;48.102;11.772;2023-09-08T03:35:43;7.15;;;5.00;;
46116;SDS011;32591;48.102;11.772;2023-09-08T03:38:10;6.75;;;4.78;;
46116;SDS011;32591;48.102;11.772;2023-09-08T03:40:37;6.85;;;4.82;;
46116;SDS011;32591;48.102;11.772;2023-09-08T03:43:05;5.90;;;4.38;;
46116;SDS011;32591;48.102;11.772;2023-09-08T03:45:32;7.22;;;4.38;;
46116;SDS011;32591;48.102;11.772;2023-09-08T03:47:59;7.70;;;5.13;;
46116;SDS011;32591;48.102;11.772;2023-09-08T03:50:26;7.35;;;4.32;;
46116;SDS011;32591;48.102;11.772;2023-09-08T03:52:53;7.35;;;5.05;;
46116;SDS011;32591;48.102;11.772;2023-09-08T03:55:20;7.60;;;4.43;;
46116;SDS011;32591;48.102;11.772;2023-09-08T03:57:47;8.45;;;4.70;;
46116;SDS011;32591;48.102;11.772;2023-09-08T04:00:15;6.35;;;4.55;;
46116;SDS011;32591;48.102;11.772;2023-09-08T04:02:47;6.80;;;4.15;;
46116;SDS011;32591;48.102;11.772;2023-09-08T04:05:15;6.88;;;5.43;;
46116;SDS011;32591;48.102;11.772;2023-09-08T04:07:42;7.85;;;4.68;;
46116;SDS011;32591;48.102;11.772;2023-09-08T04:10:09;8.07;;;4.53;;
46116;SDS011;32591;48.102;11.772;2023-09-08T04:12:38;7.88;;;5.43;;
46116;SDS011;32591;48.102;11.772;2023-09-08T04:15:05;8.68;;;5.10;;
46116;SDS011;32591;48.102;11.772;2023-09-08T04:17:35;6.78;;;5.03;;
46116;SDS011;32591;48.102;11.772;2023-09-08T04:20:02;6.72;;;4.68;;
46116;SDS011;32591;48.102;11.772;2023-09-08T04:22:31;5.68;;;4.65;;
46116;SDS011;32591;48.102;11.772;2023-09-08T04:24:58;10.32;;;5.35;;
46116;SDS011;32591;48.102;11.772;2023-09-08T04:27:25;9.07;;;5.53;;
46116;SDS011;32591;48.102;11.772;2023-09-08T04:29:52;8.02;;;4.82;;
46116;SDS011;32591;48.102;11.772;2023-09-08T04:32:19;7.43;;;4.90;;
46116;SDS011;32591;48.102;11.772;2023-09-08T04:34:47;7.25;;;5.10;;
46116;SDS011;32591;48.102;11.772;2023-09-08T04:37:15;7.93;;;5.22;;
46116;SDS011;32591;48.102;11.772;2023-09-08T04:39:42;6.72;;;4.53;;
46116;SDS011;32591;48.102;11.772;2023-09-08T04:42:09;7.07;;;5.47;;
46116;SDS011;32591;48.102;11.772;2023-09-08T04:44:36;7.03;;;4.93;;
46116;SDS011;32591;48.102;11.772;2023-09-08T04:47:03;8.45;;;5.15;;
46116;SDS011;32591;48.102;11.772;2023-09-08T04:49:30;6.90;;;5.30;;
46116;SDS011;32591;48.102;11.772;2023-09-08T04:51:59;6.50;;;4.75;;
46116;SDS011;32591;48.102;11.772;2023-09-08T04:54:26;7.78;;;5.43;;
46116;SDS011;32591;48.102;11.772;2023-09-08T04:56:52;6.78;;;4.97;;
46116;SDS011;32591;48.102;11.772;2023-09-08T04:59:20;7.75;;;4.88;;
46116;SDS011;32591;48.102;11.772;2023-09-08T05:01:48;5.78;;;4.47;;
46116;SDS011;32591;48.102;11.772;2023-09-08T05:04:16;7.68;;;5.47;;
46116;SDS011;32591;48.102;11.772;2023-09-08T05:06:43;8.52;;;5.03;;
46116;SDS011;32591;48.102;11.772;2023-09-08T05:09:12;12.30;;;5.32;;
46116;SDS011;32591;48.102;11.772;2023-09-08T05:11:40;6.05;;;5.45;;
46116;SDS011;32591;48.102;11.772;2023-09-08T05:14:07;7.97;;;5.80;;
46116;SDS011;32591;48.102;11.772;2023-09-08T05:16:34;8.13;;;5.68;;
46116;SDS011;32591;48.102;11.772;2023-09-08T05:19:10;7.30;;;5.72;;
46116;SDS011;32591;48.102;11.772;2023-09-08T05:21:38;8.57;;;5.53;;
46116;SDS011;32591;48.102;11.772;2023-09-08T05:24:06;8.63;;;5.47;;
46116;SDS011;32591;48.102;11.772;2023-09-08T05:26:36;6.70;;;5.78;;
46116;SDS011;32591;48.102;11.772;2023-09-08T05:29:04;7.50;;;5.45;;
46116;SDS011;32591;48.102;11.772;2023-09-08T05:31:31;7.35;;;5.68;;
46116;SDS011;32591;48.102;11.772;2023-09-08T05:33:58;8.52;;;5.85;;
46116;SDS011;32591;48.102;11.772;2023-09-08T05:36:25;9.57;;;6.03;;
46116;SDS011;32591;48.102;11.772;2023-09-08T05:38:52;7.85;;;5.35;;
46116;SDS011;32591;48.102;11.772;2023-09-08T05:41:18;7.70;;;5.72;;
46116;SDS011;32591;48.102;11.772;2023-09-08T05:43:47;12.10;;;6.07;;
46116;SDS011;32591;48.102;11.772;2023-09-08T05:46:14;9.73;;;5.38;;
46116;SDS011;32591;48.102;11.772;2023-09-08T05:48:41;7.80;;;5.75;;
46116;SDS011;32591;48.102;11.772;2023-09-08T05:51:08;8.93;;;5.53;;
46116;SDS011;32591;48.102;11.772;2023-09-08T05:53:35;9.95;;;6.05;;
46116;SDS011;32591;48.102;11.772;2023-09-08T05:56:05;7.90;;;5.50;;
46116;SDS011;32591;48.102;11.772;2023-09-08T05:58:32;7.05;;;5.35;;
46116;SDS011;32591;48.102;11.772;2023-09-08T06:01:01;8.35;;;5.47;;
46116;SDS011;32591;48.102;11.772;2023-09-08T06:03:28;7.95;;;5.57;;
46116;SDS011;32591;48.102;11.772;2023-09-08T06:05:56;9.20;;;5.43;;
46116;SDS011;32591;48.102;11.772;2023-09-08T06:08:23;10.07;;;5.93;;
46116;SDS011;32591;48.102;11.772;2023-09-08T06:10:50;8.77;;;5.35;;
46116;SDS011;32591;48.102;11.772;2023-09-08T06:13:17;8.23;;;5.90;;
46116;SDS011;32591;48.102;11.772;2023-09-08T06:15:44;7.43;;;5.22;;
46116;SDS011;32591;48.102;11.772;2023-09-08T06:18:13;8.07;;;6.47;;
46116;SDS011;32591;48.102;11.772;2023-09-08T06:20:43;7.30;;;5.05;;
46116;SDS011;32591;48.102;11.772;2023-09-08T06:23:12;9.68;;;5.78;;
46116;SDS011;32591;48.102;11.772;2023-09-08T06:25:39;9.23;;;5.65;;
46116;SDS011;32591;48.102;11.772;2023-09-08T06:28:06;8.25;;;6.25;;
46116;SDS011;32591;48.102;11.772;2023-09-08T06:30:33;7.22;;;5.50;;
46116;SDS011;32591;48.102;11.772;2023-09-08T06:33:00;8.77;;;5.57;;
46116;SDS011;32591;48.102;11.772;2023-09-08T06:35:29;7.32;;;5.60;;
46116;SDS011;32591;48.102;11.772;2023-09-08T06:37:56;9.18;;;5.93;;
46116;SDS011;32591;48.102;11.772;2023-09-08T06:40:23;8.23;;;5.65;;
46116;SDS011;32591;48.102;11.772;2023-09-08T06:42:51;7.15;;;5.35;;
46116;SDS011;32591;48.102;11.772;2023-09-08T06:45:18;8.80;;;6.20;;
46116;SDS011;32591;48.102;11.772;2023-09-08T06:47:45;8.43;;;6.20;;
46116;SDS011;32591;48.102;11.772;2023-09-08T06:50:12;8.13;;;5.60;;
46116;SDS011;32591;48.102;11.772;2023-09-08T06:52:40;7.85;;;6.15;;
46116;SDS011;32591;48.102;11.772;2023-09-08T06:55:07;10.75;;;6.82;;
46116;SDS011;32591;48.102;11.772;2023-09-08T06:57:34;7.32;;;6.25;;
46116;SDS011;32591;48.102;11.772;2023-09-08T07:00:02;9.07;;;6.03;;
46116;SDS011;32591;48.102;11.772;2023-09-08T07:02:32;8.30;;;6.18;;
46116;SDS011;32591;48.102;11.772;2023-09-08T07:04:59;7.80;;;5.50;;
46116;SDS011;32591;48.102;11.772;2023-09-08T07:07:31;7.60;;;6.18;;
46116;SDS011;32591;48.102;11.772;2023-09-08T07:10:00;8.32;;;6.75;;
46116;SDS011;32591;48.102;11.772;2023-09-08T07:12:27;8.02;;;5.43;;
46116;SDS011;32591;48.102;11.772;2023-09-08T07:14:54;8.13;;;5.70;;
46116;SDS011;32591;48.102;11.772;2023-09-08T07:17:21;8.20;;;6.05;;
46116;SDS011;32591;48.102;11.772;2023-09-08T07:19:48;9.52;;;5.90;;
46116;SDS011;32591;48.102;11.772;2023-09-08T07:22:15;8.60;;;6.57;;
46116;SDS011;32591;48.102;11.772;2023-09-08T07:24:42;8.10;;;6.03;;
46116;SDS011;32591;48.102;11.772;2023-09-08T07:27:11;10.60;;;6.88;;
46116;SDS011;32591;48.102;11.772;2023-09-08T07:29:39;8.13;;;6.05;;
46116;SDS011;32591;48.102;11.772;2023-09-08T07:32:06;10.07;;;6.60;;
46116;SDS011;32591;48.102;11.772;2023-09-08T07:34:33;8.75;;;6.68;;
46116;SDS011;32591;48.102;11.772;2023-09-08T07:37:00;7.90;;;5.78;;
46116;SDS011;32591;48.102;11.772;2023-09-08T07:39:27;8.50;;;5.88;;
46116;SDS011;32591;48.102;11.772;2023-09-08T07:41:55;11.63;;;6.50;;
46116;SDS011;32591;48.102;11.772;2023-09-08T07:44:23;9.73;;;6.20;;
46116;SDS011;32591;48.102;11.772;2023-09-08T07:46:51;9.60;;;6.18;;
46116;SDS011;32591;48.102;11.772;2023-09-08T07:49:18;10.77;;;5.70;;
46116;SDS011;32591;48.102;11.772;2023-09-08T07:51:45;7.85;;;5.88;;
46116;SDS011;32591;48.102;11.772;2023-09-08T07:54:12;11.90;;;6.45;;
46116;SDS011;32591;48.102;11.772;2023-09-08T07:56:39;10.90;;;6.20;;
46116;SDS011;32591;48.102;11.772;2023-09-08T07:59:06;7.80;;;5.80;;
46116;SDS011;32591;48.102;11.772;2023-09-08T08:01:35;7.63;;;6.20;;
46116;SDS011;32591;48.102;11.772;2023-09-08T08:04:02;10.30;;;6.47;;
46116;SDS011;32591;48.102;11.772;2023-09-08T08:06:29;11.32;;;6.25;;
46116;SDS011;32591;48.102;11.772;2023-09-08T08:08:56;8.00;;;6.22;;
46116;SDS011;32591;48.102;11.772;2023-09-08T08:11:23;7.15;;;5.78;;
46116;SDS011;32591;48.102;11.772;2023-09-08T08:13:51;8.73;;;6.13;;
46116;SDS011;32591;48.102;11.772;2023-09-08T08:16:18;9.52;;;6.28;;
46116;SDS011;32591;48.102;11.772;2023-09-08T08:18:48;8.70;;;6.55;;
46116;SDS011;32591;48.102;11.772;2023-09-08T08:21:15;9.10;;;5.85;;
46116;SDS011;32591;48.102;11.772;2023-09-08T08:23:42;7.28;;;6.30;;
46116;SDS011;32591;48.102;11.772;2023-09-08T08:26:09;7.50;;;5.72;;
46116;SDS011;32591;48.102;11.772;2023-09-08T08:28:36;10.45;;;6.72;;
46116;SDS011;32591;48.102;11.772;2023-09-08T08:31:03;8.23;;;6.80;;
46116;SDS011;32591;48.102;11.772;2023-09-08T08:33:30;7.47;;;5.85;;
46116;SDS011;32591;48.102;11.772;2023-09-08T08:35:59;7.60;;;6.22;;
46116;SDS011;32591;48.102;11.772;2023-09-08T08:38:26;10.02;;;6.28;;
46116;SDS011;32591;48.102;11.772;2023-09-08T08:40:53;8.70;;;6.28;;
46116;SDS011;32591;48.102;11.772;2023-09-08T08:43:20;9.05;;;6.80;;
46116;SDS011;32591;48.102;11.772;2023-09-08T08:45:49;12.07;;;6.53;;
46116;SDS011;32591;48.102;11.772;2023-09-08T08:48:17;10.30;;;6.80;;
46116;SDS011;32591;48.102;11.772;2023-09-08T08:50:46;8.18;;;6.28;;
46116;SDS011;32591;48.102;11.772;2023-09-08T08:53:15;8.23;;;6.05;;
46116;SDS011;32591;48.102;11.772;2023-09-08T08:55:44;9.60;;;6.65;;
46116;SDS011;32591;48.102;11.772;2023-09-08T08:58:12;8.32;;;5.80;;
46116;SDS011;32591;48.102;11.772;2023-09-08T09:00:40;9.48;;;6.60;;
46116;SDS011;32591;48.102;11.772;2023-09-08T09:03:08;8.88;;;5.82;;
46116;SDS011;32591;48.102;11.772;2023-09-08T09:05:35;7.25;;;5.97;;
46116;SDS011;32591;48.102;11.772;2023-09-08T09:08:04;8.25;;;6.60;;
46116;SDS011;32591;48.102;11.772;2023-09-08T09:10:33;8.90;;;6.10;;
46116;SDS011;32591;48.102;11.772;2023-09-08T09:13:00;8.43;;;6.07;;
46116;SDS011;32591;48.102;11.772;2023-09-08T09:15:28;7.05;;;5.85;;
46116;SDS011;32591;48.102;11.772;2023-09-08T09:18:02;9.45;;;6.03;;
46116;SDS011;32591;48.102;11.772;2023-09-08T09:20:30;10.15;;;7.03;;
46116;SDS011;32591;48.102;11.772;2023-09-08T09:22:57;7.88;;;6.40;;
46116;SDS011;32591;48.102;11.772;2023-09-08T09:25:25;10.35;;;7.13;;
46116;SDS011;32591;48.102;11.772;2023-09-08T09:27:56;10.55;;;6.45;;
46116;SDS011;32591;48.102;11.772;2023-09-08T09:30:24;8.75;;;6.85;;
46116;SDS011;32591;48.102;11.772;2023-09-08T09:32:59;10.13;;;6.88;;
46116;SDS011;32591;48.102;11.772;2023-09-08T09:35:39;8.18;;;7.28;;
46116;SDS011;32591;48.102;11.772;2023-09-08T09:38:07;8.30;;;6.57;;
46116;SDS011;32591;48.102;11.772;2023-09-08T09:40:34;8.23;;;7.28;;
46116;SDS011;32591;48.102;11.772;2023-09-08T09:43:03;8.57;;;6.63;;
46116;SDS011;32591;48.102;11.772;2023-09-08T09:45:33;8.48;;;7.18;;
46116;SDS011;32591;48.102;11.772;2023-09-08T09:48:02;10.25;;;7.13;;
46116;SDS011;32591;48.102;11.772;2023-09-08T09:50:30;7.85;;;5.93;;
46116;SDS011;32591;48.102;11.772;2023-09-08T09:53:00;11.20;;;6.45;;
46116;SDS011;32591;48.102;11.772;2023-09-08T09:55:36;8.00;;;7.13;;
46116;SDS011;32591;48.102;11.772;2023-09-08T09:58:06;9.70;;;7.00;;
46116;SDS011;32591;48.102;11.772;2023-09-08T10:00:35;8.05;;;6.43;;
46116;SDS011;32591;48.102;11.772;2023-09-08T10:03:03;8.15;;;6.57;;
46116;SDS011;32591;48.102;11.772;2023-09-08T10:05:31;9.10;;;6.10;;
46116;SDS011;32591;48.102;11.772;2023-09-08T10:07:58;7.68;;;6.15;;
46116;SDS011;32591;48.102;11.772;2023-09-08T10:10:26;7.07;;;6.03;;
46116;SDS011;32591;48.102;11.772;2023-09-08T10:12:57;8.85;;;6.50;;
46116;SDS011;32591;48.102;11.772;2023-09-08T10:15:30;7.88;;;6.28;;
46116;SDS011;32591;48.102;11.772;2023-09-08T10:18:00;8.13;;;6.72;;
46116;SDS011;32591;48.102;11.772;2023-09-08T10:20:31;8.60;;;6.38;;
46116;SDS011;32591;48.102;11.772;2023-09-08T10:23:02;7.07;;;6.38;;
46116;SDS011;32591;48.102;11.772;2023-09-08T10:25:35;8.13;;;6.63;;
46116;SDS011;32591;48.102;11.772;2023-09-08T10:28:10;7.10;;;6.40;;
46116;SDS011;32591;48.102;11.772;2023-09-08T10:30:40;9.10;;;6.57;;
46116;SDS011;32591;48.102;11.772;2023-09-08T10:33:08;6.78;;;5.88;;
46116;SDS011;32591;48.102;11.772;2023-09-08T10:35:36;7.82;;;7.03;;
46116;SDS011;32591;48.102;11.772;2023-09-08T10:38:22;6.95;;;5.90;;
46116;SDS011;32591;48.102;11.772;2023-09-08T10:40:50;7.60;;;5.97;;
46116;SDS011;32591;48.102;11.772;2023-09-08T10:43:18;8.88;;;6.50;;
46116;SDS011;32591;48.102;11.772;2023-09-08T10:45:47;9.50;;;6.22;;
46116;SDS011;32591;48.102;11.772;2023-09-08T10:48:14;8.95;;;6.25;;
46116;SDS011;32591;48.102;11.772;2023-09-08T10:50:41;9.98;;;5.97;;
46116;SDS011;32591;48.102;11.772;2023-09-08T10:53:13;8.60;;;6.78;;
46116;SDS011;32591;48.102;11.772;2023-09-08T10:55:42;7.30;;;6.07;;
46116;SDS011;32591;48.102;11.772;2023-09-08T10:58:28;7.50;;;5.93;;
46116;SDS011;32591;48.102;11.772;2023-09-08T11:01:00;7.47;;;6.10;;
46116;SDS011;32591;48.102;11.772;2023-09-08T11:03:42;7.50;;;6.72;;
46116;SDS011;32591;48.102;11.772;2023-09-08T11:06:11;7.20;;;6.50;;
46116;SDS011;32591;48.102;11.772;2023-09-08T11:08:42;8.10;;;6.32;;
46116;SDS011;32591;48.102;11.772;2023-09-08T11:11:10;6.78;;;5.97;;
46116;SDS011;32591;48.102;11.772;2023-09-08T11:13:39;8.35;;;6.35;;
46116;SDS011;32591;48.102;11.772;2023-09-08T11:16:07;6.82;;;6.13;;
46116;SDS011;32591;48.102;11.772;2023-09-08T11:18:34;12.15;;;6.65;;
46116;SDS011;32591;48.102;11.772;2023-09-08T11:21:02;8.85;;;7.05;;
46116;SDS011;32591;48.102;11.772;2023-09-08T11:23:33;10.85;;;7.22;;
46116;SDS011;32591;48.102;11.772;2023-09-08T11:26:00;8.15;;;6.82;;
46116;SDS011;32591;48.102;11.772;2023-09-08T11:28:27;7.18;;;6.13;;
46116;SDS011;32591;48.102;11.772;2023-09-08T11:30:54;8.55;;;6.05;;
46116;SDS011;32591;48.102;11.772;2023-09-08T11:33:23;9.02;;;6.53;;
46116;SDS011;32591;48.102;11.772;2023-09-08T11:35:51;8.32;;;6.68;;
46116;SDS011;32591;48.102;11.772;2023-09-08T11:38:19;11.15;;;6.03;;
46116;SDS011;32591;48.102;11.772;2023-09-08T11:40:50;8.75;;;6.57;;
46116;SDS011;32591;48.102;11.772;2023-09-08T11:43:18;7.32;;;6.57;;
46116;SDS011;32591;48.102;11.772;2023-09-08T11:45:45;7.88;;;6.60;;
46116;SDS011;32591;48.102;11.772;2023-09-08T11:48:14;8.60;;;6.55;;
46116;SDS011;32591;48.102;11.772;2023-09-08T11:50:43;7.10;;;6.28;;
46116;SDS011;32591;48.102;11.772;2023-09-08T11:53:10;7.50;;;6.03;;
46116;SDS011;32591;48.102;11.772;2023-09-08T11:55:37;9.13;;;6.75;;
46116;SDS011;32591;48.102;11.772;2023-09-08T11:58:04;7.97;;;5.78;;
46116;SDS011;32591;48.102;11.772;2023-09-08T12:00:32;8.68;;;6.57;;
46116;SDS011;32591;48.102;11.772;2023-09-08T12:03:09;8.00;;;5.90;;
46116;SDS011;32591;48.102;11.772;2023-09-08T12:05:37;7.68;;;6.45;;
46116;SDS011;32591;48.102;11.772;2023-09-08T12:08:06;8.32;;;7.05;;
46116;SDS011;32591;48.102;11.772;2023-09-08T12:10:39;8.48;;;6.20;;
46116;SDS011;32591;48.102;11.772;2023-09-08T12:13:08;8.10;;;6.18;;
46116;SDS011;32591;48.102;11.772;2023-09-08T12:15:35;7.80;;;6.18;;
46116;SDS011;32591;48.102;11.772;2023-09-08T12:18:04;8.55;;;6.43;;
46116;SDS011;32591;48.102;11.772;2023-09-08T12:20:34;8.40;;;6.30;;
46116;SDS011;32591;48.102;11.772;2023-09-08T12:23:03;9.75;;;6.75;;
46116;SDS011;32591;48.102;11.772;2023-09-08T12:25:43;7.80;;;6.60;;
46116;SDS011;32591;48.102;11.772;2023-09-08T12:28:12;8.30;;;6.32;;
46116;SDS011;32591;48.102;11.772;2023-09-08T12:30:39;6.53;;;5.70;;
46116;SDS011;32591;48.102;11.772;2023-09-08T12:33:07;9.38;;;6.47;;
46116;SDS011;32591;48.102;11.772;2023-09-08T12:35:35;9.15;;;6.45;;
46116;SDS011;32591;48.102;11.772;2023-09-08T12:38:02;9.85;;;6.68;;
46116;SDS011;32591;48.102;11.772;2023-09-08T12:40:39;8.30;;;6.65;;
46116;SDS011;32591;48.102;11.772;2023-09-08T12:43:07;7.43;;;5.85;;
46116;SDS011;32591;48.102;11.772;2023-09-08T12:45:34;7.57;;;5.57;;
46116;SDS011;32591;48.102;11.772;2023-09-08T12:48:01;8.13;;;6.43;;
46116;SDS011;32591;48.102;11.772;2023-09-08T12:50:28;6.25;;;5.55;;
46116;SDS011;32591;48.102;11.772;2023-09-08T12:52:56;7.28;;;6.50;;
46116;SDS011;32591;48.102;11.772;2023-09-08T12:55:23;6.68;;;6.05;;
46116;SDS011;32591;48.102;11.772;2023-09-08T12:57:51;7.53;;;6.53;;
46116;SDS011;32591;48.102;11.772;2023-09-08T13:00:19;8.80;;;6.45;;
46116;SDS011;32591;48.102;11.772;2023-09-08T13:02:48;7.50;;;6.80;;
46116;SDS011;32591;48.102;11.772;2023-09-08T13:05:15;7.57;;;6.78;;
46116;SDS011;32591;48.102;11.772;2023-09-08T13:07:42;8.15;;;6.35;;
46116;SDS011;32591;48.102;11.772;2023-09-08T13:10:09;9.02;;;7.00;;
46116;SDS011;32591;48.102;11.772;2023-09-08T13:12:36;7.82;;;5.93;;
46116;SDS011;32591;48.102;11.772;2023-09-08T13:15:05;8.57;;;6.32;;
46116;SDS011;32591;48.102;11.772;2023-09-08T13:17:33;6.82;;;5.32;;
46116;SDS011;32591;48.102;11.772;2023-09-08T13:20:01;7.20;;;6.50;;
46116;SDS011;32591;48.102;11.772;2023-09-08T13:22:29;7.07;;;6.05;;
46116;SDS011;32591;48.102;11.772;2023-09-08T13:24:56;9.07;;;6.72;;
46116;SDS011;32591;48.102;11.772;2023-09-08T13:27:23;9.65;;;6.45;;
46116;SDS011;32591;48.102;11.772;2023-09-08T13:29:50;9.77;;;6.10;;
46116;SDS011;32591;48.102;11.772;2023-09-08T13:32:21;13.82;;;6.80;;
46116;SDS011;32591;48.102;11.772;2023-09-08T13:34:50;8.85;;;6.85;;
46116;SDS011;32591;48.102;11.772;2023-09-08T13:37:17;7.80;;;6.60;;
46116;SDS011;32591;48.102;11.772;2023-09-08T13:39:44;7.60;;;6.72;;
46116;SDS011;32591;48.102;11.772;2023-09-08T13:42:10;9.05;;;6.50;;
46116;SDS011;32591;48.102;11.772;2023-09-08T13:44:37;7.75;;;6.40;;
46116;SDS011;32591;48.102;11.772;2023-09-08T13:47:04;14.13;;;6.88;;
46116;SDS011;32591;48.102;11.772;2023-09-08T13:49:33;8.90;;;7.10;;
46116;SDS011;32591;48.102;11.772;2023-09-08T13:51:59;10.27;;;6.55;;
46116;SDS011;32591;48.102;11.772;2023-09-08T13:54:27;7.38;;;6.13;;
46116;SDS011;32591;48.102;11.772;2023-09-08T13:56:57;12.30;;;6.60;;
46116;SDS011;32591;48.102;11.772;2023-09-08T13:59:26;7.75;;;6.28;;
46116;SDS011;32591;48.102;11.772;2023-09-08T14:01:54;9.20;;;5.57;;
46116;SDS011;32591;48.102;11.772;2023-09-08T14:04:22;6.15;;;5.40;;
46116;SDS011;32591;48.102;11.772;2023-09-08T14:06:51;8.23;;;6.30;;
46116;SDS011;32591;48.102;11.772;2023-09-08T14:09:18;7.45;;;6.40;;
46116;SDS011;32591;48.102;11.772;2023-09-08T14:11:45;7.15;;;6.22;;
46116;SDS011;32591;48.102;11.772;2023-09-08T14:14:12;7.95;;;5.95;;
46116;SDS011;32591;48.102;11.772;2023-09-08T14:16:39;8.25;;;5.57;;
46116;SDS011;32591;48.102;11.772;2023-09-08T14:19:06;10.02;;;6.47;;
46116;SDS011;32591;48.102;11.772;2023-09-08T14:21:33;7.10;;;5.63;;
46116;SDS011;32591;48.102;11.772;2023-09-08T14:24:03;6.22;;;5.63;;
46116;SDS011;32591;48.102;11.772;2023-09-08T14:26:31;9.60;;;5.93;;
46116;SDS011;32591;48.102;11.772;2023-09-08T14:28:58;7.00;;;5.45;;
46116;SDS011;32591;48.102;11.772;2023-09-08T14:31:25;8.52;;;6.10;;
46116;SDS011;32591;48.102;11.772;2023-09-08T14:33:52;6.55;;;5.60;;
46116;SDS011;32591;48.102;11.772;2023-09-08T14:36:20;9.50;;;6.10;;
46116;SDS011;32591;48.102;11.772;2023-09-08T14:38:47;7.60;;;5.72;;
46116;SDS011;32591;48.102;11.772;2023-09-08T14:41:16;6.90;;;6.15;;